Time;durP1;ratioP1;P1;durP2;ratioP2;P2;SDS_P1;SDS_P2;PMS_P1;PMS_P2;Temp;Humidity;BMP_temperature;BMP_pressure;BME280_temperature;BME280_humidity;BME280_pressure;Samples;Min_cycle;Max_cycle;Signal;HPM_P1;HPM_P2
2024/01/30 00:00:54;;;;;;;1.75;1.08;;;18.20;66.90;;;;;;6217112;23;20209;-86
2024/01/30 00:03:20;;;;;;;2.05;1.40;;;18.20;66.80;;;;;;6192073;23;20185;-86
2024/01/30 00:05:46;;;;;;;1.83;1.15;;;18.20;66.80;;;;;;6217108;23;20217;-86
2024/01/30 00:08:12;;;;;;;1.88;1.20;;;18.20;66.90;;;;;;6167428;23;20146;-86
2024/01/30 00:10:37;;;;;;;4.32;1.40;;;18.10;66.90;;;;;;6167741;23;20152;-86
2024/01/30 00:13:04;;;;;;;2.15;1.38;;;18.20;66.90;;;;;;6193228;23;20561;-86
2024/01/30 00:15:32;;;;;;;3.85;1.52;;;18.10;66.70;;;;;;6192088;23;20166;-86
2024/01/30 00:17:58;;;;;;;2.45;1.35;;;18.10;66.90;;;;;;6192211;23;20161;-86
2024/01/30 00:20:24;;;;;;;3.75;1.60;;;18.10;66.50;;;;;;6166565;23;20233;-86
2024/01/30 00:22:50;;;;;;;3.00;1.23;;;18.10;66.50;;;;;;6166714;23;20157;-86
2024/01/30 00:25:15;;;;;;;1.90;1.20;;;18.10;66.80;;;;;;6167501;23;20141;-86
2024/01/30 00:27:42;;;;;;;2.42;1.17;;;18.20;67.00;;;;;;6167333;23;20150;-86
2024/01/30 00:30:08;;;;;;;2.35;1.33;;;18.10;66.70;;;;;;6166808;23;20147;-85
2024/01/30 00:32:34;;;;;;;1.20;1.00;;;18.10;66.90;;;;;;6191381;23;20209;-86
2024/01/30 00:35:00;;;;;;;3.63;1.63;;;18.10;66.90;;;;;;6191576;23;20193;-86
2024/01/30 00:37:26;;;;;;;2.60;1.33;;;18.10;66.90;;;;;;6166955;23;20157;-85
2024/01/30 00:39:52;;;;;;;2.20;1.20;;;18.10;66.80;;;;;;6216291;23;20197;-86
2024/01/30 00:42:19;;;;;;;2.58;1.40;;;18.10;66.70;;;;;;6191132;23;20146;-86
2024/01/30 00:44:45;;;;;;;2.45;1.55;;;18.10;66.80;;;;;;6166811;23;20150;-86
2024/01/30 00:47:11;;;;;;;1.20;1.10;;;18.10;66.90;;;;;;6192137;23;20150;-86
2024/01/30 00:49:37;;;;;;;2.88;1.30;;;18.10;66.80;;;;;;6166305;23;20155;-86
2024/01/30 00:52:03;;;;;;;1.80;1.20;;;18.10;66.80;;;;;;6166726;23;20153;-86
2024/01/30 00:54:30;;;;;;;3.20;1.27;;;18.10;66.60;;;;;;6192036;23;20504;-86
2024/01/30 00:56:57;;;;;;;2.63;1.67;;;18.10;66.80;;;;;;6167106;23;20197;-86
2024/01/30 00:59:23;;;;;;;1.52;1.40;;;18.20;66.80;;;;;;6166709;23;20165;-86
2024/01/30 01:01:49;;;;;;;2.60;1.30;;;18.10;66.90;;;;;;6166477;23;20142;-86
2024/01/30 01:04:15;;;;;;;1.48;1.15;;;18.00;66.80;;;;;;6166181;23;20198;-86
2024/01/30 01:06:43;;;;;;;1.75;1.38;;;18.10;66.80;;;;;;6165946;23;20161;-87
2024/01/30 01:09:11;;;;;;;1.73;1.33;;;18.10;67.70;;;;;;6167396;23;20150;-86
2024/01/30 01:11:37;;;;;;;3.28;1.40;;;18.00;66.80;;;;;;6166777;23;20236;-86
2024/01/30 01:14:04;;;;;;;3.05;1.45;;;18.10;66.80;;;;;;6191007;23;20126;-86
2024/01/30 01:16:30;;;;;;;3.25;1.40;;;18.10;66.70;;;;;;6190819;23;20165;-86
2024/01/30 01:18:56;;;;;;;1.83;1.23;;;18.10;66.80;;;;;;6166691;23;20479;-86
2024/01/30 01:21:23;;;;;;;1.90;1.40;;;18.10;66.80;;;;;;6166873;23;20152;-86
2024/01/30 01:23:48;;;;;;;2.78;1.48;;;18.10;66.80;;;;;;6167247;23;20150;-86
2024/01/30 01:26:16;;;;;;;1.65;1.33;;;18.10;67.50;;;;;;6216182;23;20452;-86
2024/01/30 01:28:42;;;;;;;1.95;1.52;;;18.10;66.70;;;;;;6191183;23;20153;-86
2024/01/30 01:31:08;;;;;;;2.30;1.40;;;18.10;66.70;;;;;;6166125;23;20146;-86
2024/01/30 01:33:34;;;;;;;2.28;1.38;;;18.10;66.80;;;;;;6166455;23;20146;-86
2024/01/30 01:36:02;;;;;;;1.83;1.30;;;18.10;66.80;;;;;;6190929;23;20170;-86
2024/01/30 01:38:28;;;;;;;1.63;1.40;;;18.10;66.70;;;;;;6167397;23;20477;-86
2024/01/30 01:40:54;;;;;;;1.73;1.33;;;18.10;66.70;;;;;;6166859;23;20153;-86
2024/01/30 01:43:20;;;;;;;3.08;1.50;;;18.00;66.50;;;;;;6165869;23;20157;-86
2024/01/30 01:45:45;;;;;;;3.55;1.52;;;18.10;66.60;;;;;;6166391;23;20483;-86
2024/01/30 01:48:12;;;;;;;2.90;1.55;;;18.00;66.50;;;;;;6166003;23;20237;-87
2024/01/30 01:50:38;;;;;;;2.28;1.52;;;18.10;66.70;;;;;;6165816;23;20566;-86
2024/01/30 01:53:06;;;;;;;1.60;1.13;;;18.10;66.50;;;;;;6215682;23;20130;-86
2024/01/30 01:55:33;;;;;;;2.45;1.50;;;18.10;66.40;;;;;;6165946;23;20548;-86
2024/01/30 01:58:00;;;;;;;2.35;1.25;;;18.10;66.60;;;;;;6166606;23;20153;-86
2024/01/30 02:00:25;;;;;;;3.38;1.70;;;18.00;66.60;;;;;;6165798;23;20221;-86
2024/01/30 02:02:51;;;;;;;3.55;1.80;;;18.10;66.60;;;;;;6190839;23;20162;-86
2024/01/30 02:05:18;;;;;;;2.17;1.38;;;18.10;66.60;;;;;;6215618;23;20193;-86
2024/01/30 02:07:45;;;;;;;2.05;1.42;;;18.00;66.70;;;;;;6190787;23;20131;-86
2024/01/30 02:10:13;;;;;;;2.50;1.60;;;18.10;66.70;;;;;;6165476;23;20601;-86
2024/01/30 02:12:40;;;;;;;3.28;1.58;;;18.00;66.70;;;;;;6166807;23;20166;-86
2024/01/30 02:15:07;;;;;;;3.50;1.50;;;18.10;66.70;;;;;;6165526;23;20208;-86
2024/01/30 02:17:33;;;;;;;1.90;1.33;;;18.00;66.50;;;;;;6166933;23;20185;-86
2024/01/30 02:19:59;;;;;;;2.85;1.33;;;18.00;66.50;;;;;;6166841;23;20465;-86
2024/01/30 02:22:25;;;;;;;3.10;1.30;;;18.00;66.70;;;;;;6167848;23;20477;-86
2024/01/30 02:24:53;;;;;;;2.67;1.30;;;18.00;66.40;;;;;;6192549;23;20176;-86
2024/01/30 02:27:19;;;;;;;3.22;1.75;;;18.00;66.50;;;;;;6166835;23;20237;-86
2024/01/30 02:29:45;;;;;;;1.77;1.40;;;18.10;66.40;;;;;;6191744;23;20199;-86
2024/01/30 02:32:11;;;;;;;2.42;1.50;;;18.00;66.40;;;;;;6165548;23;20177;-86
2024/01/30 02:34:41;;;;;;;1.90;1.42;;;18.00;66.50;;;;;;6190074;23;20146;-86
2024/01/30 02:37:06;;;;;;;1.67;1.27;;;18.00;66.30;;;;;;6165752;23;20232;-86
2024/01/30 02:39:33;;;;;;;3.35;1.45;;;18.00;66.50;;;;;;6166253;23;20146;-86
2024/01/30 02:42:00;;;;;;;2.85;1.35;;;18.00;66.50;;;;;;6190200;23;20133;-86
2024/01/30 02:44:26;;;;;;;2.65;1.33;;;18.10;66.60;;;;;;6165471;23;20582;-86
2024/01/30 02:46:55;;;;;;;3.95;1.50;;;18.00;66.60;;;;;;6165367;23;20193;-86
2024/01/30 02:49:49;;;;;;;1.77;1.52;;;18.10;66.40;;;;;;6167340;23;20680;-86
2024/01/30 02:52:21;;;;;;;2.75;1.50;;;18.00;66.40;;;;;;6127575;23;20533;-86
2024/01/30 02:54:47;;;;;;;2.38;1.40;;;18.00;66.40;;;;;;6134753;23;20151;-87
2024/01/30 02:57:13;;;;;;;2.25;1.20;;;18.10;66.40;;;;;;6159073;23;20190;-87
2024/01/30 02:59:38;;;;;;;1.75;1.40;;;18.00;66.40;;;;;;6159126;23;20209;-87
2024/01/30 03:02:04;;;;;;;2.55;1.60;;;18.00;66.50;;;;;;6159235;23;20154;-87
2024/01/30 03:04:30;;;;;;;2.88;1.30;;;18.00;66.50;;;;;;6134123;23;20186;-87
2024/01/30 03:06:59;;;;;;;2.05;1.50;;;18.00;67.30;;;;;;6159152;23;20532;-87
2024/01/30 03:09:26;;;;;;;3.42;1.35;;;18.00;66.70;;;;;;6159090;23;20139;-87
2024/01/30 03:11:52;;;;;;;2.80;1.50;;;18.00;66.40;;;;;;6159414;23;20157;-86
2024/01/30 03:14:17;;;;;;;2.10;1.48;;;18.10;66.30;;;;;;6158863;23;20138;-87
2024/01/30 03:16:43;;;;;;;1.55;1.17;;;18.00;66.50;;;;;;6159499;23;20181;-86
2024/01/30 03:19:09;;;;;;;3.00;1.25;;;18.00;66.30;;;;;;6158894;23;20521;-87
2024/01/30 03:21:35;;;;;;;2.95;1.50;;;18.00;66.30;;;;;;6134229;23;20139;-87
2024/01/30 03:24:01;;;;;;;1.73;1.48;;;18.00;66.30;;;;;;6204655;23;20485;-86
2024/01/30 03:26:26;;;;;;;2.00;1.50;;;18.00;66.10;;;;;;6215799;23;20149;-87
2024/01/30 03:28:53;;;;;;;3.40;1.60;;;18.00;66.00;;;;;;6189965;23;20133;-86
2024/01/30 03:31:19;;;;;;;2.13;1.30;;;18.00;66.20;;;;;;6190966;23;20138;-87
2024/01/30 03:33:45;;;;;;;2.78;1.42;;;18.00;66.10;;;;;;6164726;23;20145;-87
2024/01/30 03:36:11;;;;;;;2.30;1.42;;;18.00;66.30;;;;;;6214875;23;20501;-87
2024/01/30 03:38:38;;;;;;;2.03;1.40;;;18.00;66.20;;;;;;6189800;23;20297;-86
2024/01/30 03:41:08;;;;;;;2.20;1.40;;;18.00;66.40;;;;;;6189345;23;20166;-87
2024/01/30 03:43:33;;;;;;;2.60;1.50;;;18.00;66.30;;;;;;6165997;23;20142;-87
2024/01/30 03:46:00;;;;;;;2.38;1.58;;;18.00;66.30;;;;;;6164805;23;20149;-87
2024/01/30 03:48:27;;;;;;;3.17;1.42;;;18.00;66.00;;;;;;6189760;23;20138;-87
2024/01/30 03:50:54;;;;;;;2.25;1.60;;;18.00;66.20;;;;;;6189615;23;20134;-86
2024/01/30 03:53:20;;;;;;;3.25;1.60;;;18.00;66.20;;;;;;6189767;23;20142;-87
2024/01/30 03:55:46;;;;;;;3.17;1.52;;;18.00;66.30;;;;;;6165781;23;20173;-87
2024/01/30 03:58:11;;;;;;;2.47;1.45;;;18.10;66.20;;;;;;6189757;23;20146;-87
2024/01/30 04:00:37;;;;;;;2.40;1.50;;;18.00;66.30;;;;;;6165010;23;20142;-86
2024/01/30 04:03:03;;;;;;;4.10;1.60;;;17.90;66.10;;;;;;6164907;23;20146;-86
2024/01/30 04:05:29;;;;;;;2.78;1.60;;;17.90;66.10;;;;;;6165588;23;20216;-87
2024/01/30 04:07:56;;;;;;;1.92;1.50;;;18.00;66.10;;;;;;6164754;23;20139;-87
2024/01/30 04:10:21;;;;;;;2.72;1.30;;;18.00;66.10;;;;;;6158751;23;20258;-87
2024/01/30 04:12:48;;;;;;;2.33;1.50;;;18.00;66.30;;;;;;6134930;23;20186;-87
2024/01/30 04:15:14;;;;;;;2.38;1.50;;;18.00;66.20;;;;;;6134545;23;20151;-87
2024/01/30 04:17:41;;;;;;;2.95;1.50;;;18.00;66.10;;;;;;6134099;23;20620;-87
2024/01/30 04:20:07;;;;;;;2.30;1.45;;;18.00;66.30;;;;;;6133980;23;20151;-87
2024/01/30 04:22:33;;;;;;;2.38;1.48;;;18.00;66.20;;;;;;6109392;23;20581;-86
2024/01/30 04:25:01;;;;;;;2.63;1.60;;;18.00;66.20;;;;;;6109776;23;20154;-87
2024/01/30 04:27:26;;;;;;;2.78;1.70;;;18.10;66.20;;;;;;6134183;23;20150;-86
2024/01/30 04:29:52;;;;;;;2.13;1.35;;;18.00;66.00;;;;;;6109770;23;20150;-87
2024/01/30 04:32:20;;;;;;;2.53;1.50;;;18.00;65.90;;;;;;6134187;23;20580;-86
2024/01/30 04:34:45;;;;;;;2.67;1.70;;;18.00;65.90;;;;;;6134117;23;20186;-87
2024/01/30 04:37:13;;;;;;;3.35;1.48;;;18.00;65.80;;;;;;6109760;23;20175;-87
2024/01/30 04:39:39;;;;;;;2.00;1.48;;;18.00;66.00;;;;;;6109364;23;20664;-86
2024/01/30 04:42:05;;;;;;;2.58;1.20;;;18.00;66.00;;;;;;6153320;23;20154;-87
2024/01/30 04:44:31;;;;;;;1.92;1.33;;;18.00;67.00;;;;;;6190842;23;20469;-87
2024/01/30 04:47:01;;;;;;;2.10;1.50;;;18.00;66.00;;;;;;6166646;23;20161;-87
2024/01/30 04:49:27;;;;;;;2.22;1.63;;;18.00;65.90;;;;;;6192574;23;20127;-87
2024/01/30 04:51:53;;;;;;;1.92;1.52;;;18.00;66.00;;;;;;6166468;23;20149;-86
2024/01/30 04:54:19;;;;;;;3.30;1.45;;;18.00;65.90;;;;;;6167185;23;20142;-87
2024/01/30 04:56:44;;;;;;;1.88;1.60;;;18.00;65.70;;;;;;6191656;23;20174;-86
2024/01/30 04:59:10;;;;;;;2.05;1.40;;;18.00;65.90;;;;;;6216010;23;20138;-87
2024/01/30 05:01:39;;;;;;;2.55;1.50;;;18.00;66.00;;;;;;6167317;23;20451;-87
2024/01/30 05:04:07;;;;;;;2.00;1.70;;;18.00;66.00;;;;;;6191240;23;20240;-87
2024/01/30 05:06:34;;;;;;;2.30;1.60;;;18.00;65.90;;;;;;6166866;23;20172;-86
2024/01/30 05:09:00;;;;;;;2.25;1.60;;;18.00;65.70;;;;;;6191085;23;20181;-86
2024/01/30 05:11:25;;;;;;;2.15;1.60;;;18.00;65.70;;;;;;6191004;23;20138;-86
2024/01/30 05:13:51;;;;;;;2.30;1.52;;;18.00;66.50;;;;;;6191369;23;20224;-87
2024/01/30 05:16:18;;;;;;;1.83;1.50;;;18.00;65.80;;;;;;6190948;23;20197;-87
2024/01/30 05:18:44;;;;;;;2.10;1.45;;;18.00;65.80;;;;;;6190922;23;20184;-87
2024/01/30 05:21:10;;;;;;;2.35;1.40;;;18.10;65.70;;;;;;6191113;23;20193;-87
2024/01/30 05:23:38;;;;;;;2.95;1.50;;;18.00;65.80;;;;;;6215819;23;20138;-87
2024/01/30 05:26:04;;;;;;;1.52;1.30;;;18.00;65.90;;;;;;6165961;23;20664;-87
2024/01/30 05:28:30;;;;;;;2.00;1.55;;;18.00;65.70;;;;;;6166050;23;20213;-87
2024/01/30 05:30:57;;;;;;;1.98;1.67;;;18.00;65.70;;;;;;6166196;23;20142;-87
2024/01/30 05:33:23;;;;;;;2.08;1.48;;;18.00;65.70;;;;;;6165631;23;20145;-86
2024/01/30 05:35:54;;;;;;;3.28;1.88;;;18.00;65.80;;;;;;6190918;23;20248;-87
2024/01/30 05:38:20;;;;;;;1.77;1.38;;;18.00;65.60;;;;;;6191251;23;20536;-87
2024/01/30 05:40:45;;;;;;;2.33;1.50;;;17.90;65.80;;;;;;6166287;23;20161;-87
2024/01/30 05:43:12;;;;;;;2.17;1.58;;;18.00;65.60;;;;;;6166091;23;20186;-86
2024/01/30 05:45:38;;;;;;;1.70;1.40;;;18.00;65.70;;;;;;6165710;23;20214;-87
2024/01/30 05:48:05;;;;;;;2.05;1.50;;;18.00;65.60;;;;;;6190645;23;20135;-86
2024/01/30 05:50:32;;;;;;;2.00;1.50;;;18.00;65.60;;;;;;6165544;23;20184;-87
2024/01/30 05:52:57;;;;;;;2.13;1.35;;;18.00;65.80;;;;;;6166113;23;20209;-87
2024/01/30 05:55:23;;;;;;;3.40;1.40;;;18.00;65.70;;;;;;6166451;23;20208;-87
2024/01/30 05:57:52;;;;;;;1.65;1.50;;;18.00;65.60;;;;;;6166502;23;20222;-87
2024/01/30 06:00:19;;;;;;;3.65;1.70;;;18.00;65.70;;;;;;6190856;23;20134;-87
2024/01/30 06:02:44;;;;;;;2.90;1.70;;;18.00;65.70;;;;;;6165926;23;20135;-87
2024/01/30 06:05:10;;;;;;;3.03;1.65;;;18.00;65.80;;;;;;6189978;23;20280;-87
2024/01/30 06:07:36;;;;;;;2.38;1.60;;;18.00;65.70;;;;;;6165526;23;20200;-87
2024/01/30 06:10:02;;;;;;;2.78;1.80;;;18.00;65.70;;;;;;6231527;23;20142;-87
2024/01/30 06:12:28;;;;;;;2.65;1.85;;;18.00;65.60;;;;;;6180560;23;20138;-87
2024/01/30 06:14:56;;;;;;;1.95;1.50;;;18.00;65.60;;;;;;6201275;23;20138;-87
2024/01/30 06:17:23;;;;;;;2.03;1.60;;;18.00;65.10;;;;;;6175410;23;20492;-87
2024/01/30 06:19:49;;;;;;;2.00;1.70;;;18.00;65.60;;;;;;6167112;23;20146;-87
2024/01/30 06:22:17;;;;;;;2.08;1.52;;;18.00;65.60;;;;;;6191349;23;20153;-87
2024/01/30 06:24:48;;;;;;;2.03;1.60;;;17.90;65.70;;;;;;6192684;23;20130;-87
2024/01/30 06:27:15;;;;;;;2.88;1.60;;;18.00;65.90;;;;;;6168406;23;20146;-87
2024/01/30 06:29:43;;;;;;;2.72;1.70;;;17.90;65.80;;;;;;6190712;23;20600;-87
2024/01/30 06:32:09;;;;;;;3.22;1.75;;;17.90;65.80;;;;;;6190549;23;20131;-87
2024/01/30 06:34:36;;;;;;;2.53;1.77;;;17.90;65.70;;;;;;6188592;23;20149;-87
2024/01/30 06:37:02;;;;;;;3.05;1.60;;;17.90;65.70;;;;;;6189241;23;20207;-86
2024/01/30 06:39:29;;;;;;;2.97;1.70;;;18.00;65.90;;;;;;6214693;23;20158;-87
2024/01/30 06:41:56;;;;;;;2.25;1.63;;;17.90;65.80;;;;;;6189819;23;20221;-86
2024/01/30 06:44:22;;;;;;;2.50;1.70;;;18.00;66.10;;;;;;6191247;23;20130;-86
2024/01/30 06:46:49;;;;;;;2.47;1.65;;;17.90;65.70;;;;;;6167168;23;20161;-87
2024/01/30 06:49:16;;;;;;;2.45;1.83;;;17.90;65.80;;;;;;6191960;23;20146;-86
2024/01/30 06:51:43;;;;;;;1.83;1.50;;;17.90;65.90;;;;;;6191829;23;20145;-87
2024/01/30 06:54:09;;;;;;;2.03;1.52;;;17.90;65.90;;;;;;6168155;23;20146;-87
2024/01/30 06:56:35;;;;;;;2.33;1.80;;;17.90;65.80;;;;;;6191657;23;20165;-86
2024/01/30 06:59:01;;;;;;;1.92;1.70;;;17.90;65.90;;;;;;6191411;23;20154;-87
2024/01/30 07:01:29;;;;;;;2.35;1.70;;;17.90;65.80;;;;;;6166174;23;20588;-87
2024/01/30 07:03:55;;;;;;;2.38;1.70;;;17.90;65.80;;;;;;6165090;23;20473;-87
2024/01/30 07:06:22;;;;;;;1.88;1.42;;;17.90;65.80;;;;;;6191185;23;20194;-87
2024/01/30 07:08:48;;;;;;;1.75;1.48;;;18.00;65.20;;;;;;6167742;23;20157;-84
2024/01/30 07:11:20;;;;;;;2.60;1.75;;;18.00;64.50;;;;;;6192665;23;20571;-85
2024/01/30 07:13:46;;;;;;;1.75;1.50;;;18.10;64.20;;;;;;6219460;23;20126;-83
2024/01/30 07:16:12;;;;;;;1.85;1.40;;;18.10;63.90;;;;;;6193922;23;20178;-85
2024/01/30 07:18:38;;;;;;;2.53;1.60;;;18.20;63.00;;;;;;6193485;23;20150;-85
2024/01/30 07:21:04;;;;;;;2.35;1.60;;;18.20;63.30;;;;;;6191326;23;20476;-84
2024/01/30 07:23:30;;;;;;;2.38;1.48;;;18.30;63.00;;;;;;6166467;23;20146;-84
2024/01/30 07:25:55;;;;;;;1.83;1.60;;;18.30;63.60;;;;;;6192589;23;20558;-86
2024/01/30 07:28:23;;;;;;;2.40;1.75;;;18.20;63.40;;;;;;6191464;23;20172;-87
2024/01/30 07:30:50;;;;;;;2.17;1.73;;;18.30;63.40;;;;;;6166844;23;20577;-86
2024/01/30 07:33:17;;;;;;;3.00;1.85;;;18.30;63.50;;;;;;6193779;23;20205;-86
2024/01/30 07:35:45;;;;;;;2.67;1.77;;;18.30;63.20;;;;;;6195975;23;20197;-84
2024/01/30 07:38:12;;;;;;;2.58;1.90;;;18.30;62.80;;;;;;6196040;23;20213;-85
2024/01/30 07:40:39;;;;;;;2.20;1.50;;;18.30;63.00;;;;;;6195382;23;20134;-85
2024/01/30 07:43:04;;;;;;;1.92;1.30;;;18.30;63.00;;;;;;6192347;23;20145;-87
2024/01/30 07:45:33;;;;;;;2.17;1.70;;;18.30;63.20;;;;;;6195911;23;20131;-85
2024/01/30 07:47:59;;;;;;;1.80;1.40;;;18.30;63.30;;;;;;6194289;23;20150;-84
2024/01/30 07:50:26;;;;;;;1.65;1.40;;;18.30;63.20;;;;;;6167792;23;20627;-86
2024/01/30 07:52:55;;;;;;;1.73;1.40;;;18.30;63.10;;;;;;6168566;23;20225;-84
2024/01/30 07:55:27;;;;;;;1.95;1.55;;;18.30;62.80;;;;;;6167660;23;20197;-85
2024/01/30 07:57:55;;;;;;;1.67;1.45;;;18.30;63.10;;;;;;6216864;23;20146;-87
2024/01/30 08:00:22;;;;;;;1.98;1.58;;;18.30;62.70;;;;;;6192747;23;20224;-85
2024/01/30 08:02:49;;;;;;;1.55;1.40;;;18.30;62.90;;;;;;6168768;23;20146;-86
2024/01/30 08:05:15;;;;;;;2.08;1.50;;;18.30;63.00;;;;;;6192460;23;20249;-85
2024/01/30 08:07:42;;;;;;;2.63;1.90;;;18.30;62.90;;;;;;6193247;23;20138;-85
2024/01/30 08:10:11;;;;;;;1.90;1.70;;;18.30;62.60;;;;;;6172687;23;20141;-85
2024/01/30 08:12:37;;;;;;;1.55;1.38;;;18.30;62.30;;;;;;6194264;23;20296;-84
2024/01/30 08:15:16;;;;;;;1.73;1.50;;;18.40;63.20;;;;;;6196194;23;20410;-85
2024/01/30 08:17:44;;;;;;;1.83;1.40;;;18.40;62.60;;;;;;6180815;23;20512;-84
2024/01/30 08:20:13;;;;;;;2.58;1.48;;;18.40;63.00;;;;;;6203517;23;20149;-85
2024/01/30 08:22:40;;;;;;;1.65;1.50;;;18.40;63.10;;;;;;6175622;23;20200;-84
2024/01/30 08:25:06;;;;;;;1.73;1.48;;;18.40;61.90;;;;;;6177267;23;20149;-83
2024/01/30 08:27:32;;;;;;;2.28;1.50;;;18.50;61.80;;;;;;6179329;23;20153;-84
2024/01/30 08:29:58;;;;;;;3.17;1.40;;;18.50;62.80;;;;;;6202228;23;20198;-84
2024/01/30 08:32:24;;;;;;;4.10;1.63;;;18.40;62.70;;;;;;6176990;23;20150;-85
2024/01/30 08:34:51;;;;;;;2.45;1.20;;;18.40;63.20;;;;;;6199634;23;20189;-85
2024/01/30 08:37:19;;;;;;;2.08;1.75;;;18.30;63.40;;;;;;6222109;23;20158;-84
2024/01/30 08:39:46;;;;;;;1.70;1.40;;;18.30;62.60;;;;;;6225656;23;20130;-83
2024/01/30 08:42:18;;;;;;;2.00;1.63;;;18.30;63.20;;;;;;6225013;23;20168;-84
2024/01/30 08:44:47;;;;;;;2.05;1.50;;;18.30;63.00;;;;;;6199734;23;20126;-86
2024/01/30 08:47:12;;;;;;;1.80;1.50;;;18.30;62.90;;;;;;6199026;23;20154;-85
2024/01/30 08:49:38;;;;;;;1.83;1.27;;;18.40;62.70;;;;;;6225373;23;20130;-84
2024/01/30 08:52:07;;;;;;;1.98;1.33;;;18.40;62.40;;;;;;6176779;23;20142;-84
2024/01/30 08:54:36;;;;;;;2.03;1.48;;;18.40;62.60;;;;;;6230672;23;20140;-83
2024/01/30 08:57:02;;;;;;;1.50;1.40;;;18.50;62.30;;;;;;6175337;23;20260;-85
2024/01/30 08:59:29;;;;;;;3.85;1.48;;;18.40;62.80;;;;;;6177015;23;20147;-84
2024/01/30 09:01:57;;;;;;;1.50;1.40;;;18.40;62.50;;;;;;6176435;23;20578;-85
2024/01/30 09:04:23;;;;;;;1.77;1.33;;;18.40;63.10;;;;;;6175954;23;20202;-84
2024/01/30 09:06:49;;;;;;;2.50;1.40;;;18.40;62.30;;;;;;6179512;23;20145;-83
2024/01/30 09:09:16;;;;;;;2.05;1.40;;;18.40;62.80;;;;;;6228907;23;20138;-84
2024/01/30 09:11:41;;;;;;;1.60;1.40;;;18.40;62.50;;;;;;6203837;23;20585;-83
2024/01/30 09:14:11;;;;;;;2.15;1.63;;;18.50;62.50;;;;;;6204958;23;20169;-82
2024/01/30 09:16:40;;;;;;;2.50;1.60;;;18.50;61.60;;;;;;6180439;23;20200;-84
2024/01/30 09:19:06;;;;;;;1.70;1.40;;;18.50;61.80;;;;;;6204066;23;20135;-83
2024/01/30 09:21:37;;;;;;;2.00;1.50;;;18.60;61.30;;;;;;6229067;23;20538;-83
2024/01/30 09:24:05;;;;;;;1.55;1.35;;;18.60;61.80;;;;;;6228234;23;20222;-83
2024/01/30 09:26:37;;;;;;;2.38;1.33;;;18.60;61.80;;;;;;6203706;23;20157;-83
2024/01/30 09:29:04;;;;;;;2.42;1.50;;;18.60;62.60;;;;;;6228636;23;20569;-83
2024/01/30 09:31:34;;;;;;;1.77;1.30;;;18.50;63.00;;;;;;6179147;23;20139;-84
2024/01/30 09:34:00;;;;;;;1.45;1.30;;;18.50;62.80;;;;;;6179746;23;20165;-84
2024/01/30 09:36:28;;;;;;;1.75;1.40;;;18.50;63.20;;;;;;6205269;23;20170;-82
2024/01/30 09:38:58;;;;;;;1.98;1.55;;;18.50;62.50;;;;;;6179894;23;20154;-83
2024/01/30 09:41:25;;;;;;;1.38;1.27;;;18.40;62.50;;;;;;6202898;23;20134;-84
2024/01/30 09:43:51;;;;;;;2.75;1.55;;;18.50;62.80;;;;;;6203171;23;20122;-83
2024/01/30 09:46:18;;;;;;;2.40;1.95;;;18.40;62.50;;;;;;6203950;23;20576;-83
2024/01/30 09:48:46;;;;;;;1.55;1.40;;;18.40;62.50;;;;;;6177910;23;20170;-82
2024/01/30 09:51:14;;;;;;;2.00;1.80;;;18.50;63.20;;;;;;6203262;23;20184;-84
2024/01/30 09:53:40;;;;;;;2.03;1.58;;;18.50;61.70;;;;;;6177497;23;20162;-84
2024/01/30 09:56:07;;;;;;;1.98;1.70;;;18.50;61.50;;;;;;6177676;23;20236;-84
2024/01/30 09:58:33;;;;;;;1.85;1.15;;;18.60;61.30;;;;;;6202381;23;20141;-84
2024/01/30 10:00:59;;;;;;;2.63;1.30;;;18.50;62.30;;;;;;6203909;23;20138;-84
2024/01/30 10:03:25;;;;;;;2.70;1.50;;;18.60;62.20;;;;;;6204765;23;20131;-84
2024/01/30 10:05:52;;;;;;;1.58;1.40;;;18.50;62.60;;;;;;6202987;23;20200;-83
2024/01/30 10:08:19;;;;;;;1.58;1.45;;;18.60;61.50;;;;;;6179753;23;20218;-84
2024/01/30 10:10:49;;;;;;;2.25;1.42;;;18.60;61.40;;;;;;6204081;23;20149;-84
2024/01/30 10:13:18;;;;;;;1.58;1.33;;;18.60;62.50;;;;;;6205168;23;20185;-84
2024/01/30 10:18:10;;;;;;;2.28;1.45;;;18.60;62.00;;;;;;6264415;22;20208;-83
2024/01/30 10:20:37;;;;;;;1.60;1.50;;;18.50;62.20;;;;;;6262988;22;20152;-84
2024/01/30 10:23:04;;;;;;;3.40;1.30;;;18.60;62.30;;;;;;6239459;22;20151;-82
2024/01/30 10:25:31;;;;;;;1.50;1.27;;;18.60;62.70;;;;;;6240018;22;20152;-82
2024/01/30 10:27:59;;;;;;;2.78;1.50;;;18.60;62.30;;;;;;6290463;22;20225;-83
2024/01/30 10:30:24;;;;;;;1.67;1.30;;;18.60;62.50;;;;;;6239505;22;20152;-83
2024/01/30 10:32:51;;;;;;;1.90;1.60;;;18.60;62.30;;;;;;6239704;22;20141;-82
2024/01/30 10:35:17;;;;;;;1.85;1.50;;;18.60;61.70;;;;;;6264825;22;20152;-81
2024/01/30 10:37:46;;;;;;;2.92;1.88;;;18.50;62.70;;;;;;6238046;22;20244;-85
2024/01/30 10:40:16;;;;;;;1.92;1.55;;;18.50;61.30;;;;;;6289864;22;20155;-83
2024/01/30 10:42:43;;;;;;;1.77;1.33;;;18.50;61.60;;;;;;6289963;22;20125;-83
2024/01/30 10:45:12;;;;;;;2.00;1.60;;;18.60;62.20;;;;;;6238888;22;20141;-83
2024/01/30 10:47:42;;;;;;;1.38;1.23;;;18.60;62.00;;;;;;6265242;22;20145;-82
2024/01/30 10:50:10;;;;;;;1.85;1.27;;;18.50;62.90;;;;;;6238971;22;20141;-84
2024/01/30 10:52:36;;;;;;;2.08;1.38;;;18.50;63.30;;;;;;6263290;22;20143;-85
2024/01/30 10:55:06;;;;;;;1.65;1.50;;;18.50;62.90;;;;;;6233746;22;20152;-84
2024/01/30 10:57:40;;;;;;;1.95;1.58;;;18.40;63.10;;;;;;6288950;22;20164;-83
2024/01/30 11:00:12;;;;;;;1.73;1.38;;;18.50;62.80;;;;;;6289352;22;20179;-83
2024/01/30 11:30:03;;;;;;;1.25;1.15;;;18.50;62.80;;;;;;6226401;23;20558;-82
2024/01/30 11:32:30;;;;;;;1.40;1.30;;;18.60;62.80;;;;;;6201144;23;20149;-84
2024/01/30 11:34:56;;;;;;;1.63;1.20;;;18.50;61.70;;;;;;6178047;23;20146;-84
2024/01/30 11:37:24;;;;;;;1.77;1.52;;;18.60;62.50;;;;;;6204098;23;20184;-84
2024/01/30 11:39:53;;;;;;;3.72;1.60;;;18.60;61.60;;;;;;6178510;23;20142;-84
2024/01/30 11:42:26;;;;;;;2.47;1.60;;;18.60;62.30;;;;;;6228042;23;20149;-84
2024/01/30 11:44:56;;;;;;;1.50;1.25;;;18.60;62.10;;;;;;6230430;23;20126;-84
2024/01/30 11:47:23;;;;;;;2.13;1.48;;;18.60;62.90;;;;;;6229707;23;20142;-85
2024/01/30 11:49:49;;;;;;;2.85;1.20;;;18.60;62.60;;;;;;6230259;23;20142;-84
2024/01/30 13:12:22;;;;;;;3.13;1.50;;;18.90;61.10;;;;;;6281091;22;20204;-83
2024/01/30 13:14:50;;;;;;;3.13;1.27;;;18.80;61.00;;;;;;6290258;22;20141;-83
2024/01/30 13:17:16;;;;;;;5.32;1.50;;;18.80;61.20;;;;;;6264176;22;20196;-84
2024/01/30 13:19:42;;;;;;;1.80;1.38;;;18.80;61.30;;;;;;6264599;22;20454;-86
2024/01/30 13:22:10;;;;;;;2.97;1.20;;;18.80;61.90;;;;;;6240133;22;20582;-87
2024/01/30 13:24:38;;;;;;;1.83;1.20;;;18.70;61.30;;;;;;6235453;23;20145;-86
2024/01/30 13:27:06;;;;;;;1.40;1.20;;;18.70;61.10;;;;;;6207494;23;20153;-85
2024/01/30 13:29:39;;;;;;;1.77;1.33;;;18.80;61.10;;;;;;6207769;23;20145;-86
2024/01/30 13:32:06;;;;;;;5.28;1.30;;;18.70;61.80;;;;;;6209485;23;20138;-85
2024/01/30 13:34:32;;;;;;;3.17;1.52;;;18.70;61.40;;;;;;6208629;23;20172;-85
2024/01/30 13:36:58;;;;;;;2.83;1.55;;;18.70;61.80;;;;;;6205561;23;20553;-85
2024/01/30 13:39:25;;;;;;;2.53;1.27;;;18.80;61.50;;;;;;6204572;23;20146;-85
2024/01/30 13:42:02;;;;;;;2.75;1.38;;;18.80;61.80;;;;;;6203856;23;20195;-87
2024/01/30 13:44:29;;;;;;;1.55;1.40;;;18.90;60.80;;;;;;6207677;23;20677;-85
2024/01/30 13:46:56;;;;;;;4.32;1.35;;;18.90;61.10;;;;;;6181942;23;20187;-84
2024/01/30 13:49:24;;;;;;;2.00;1.08;;;18.80;61.70;;;;;;6207654;23;20156;-83
2024/01/30 13:51:50;;;;;;;2.30;1.40;;;18.70;62.00;;;;;;6209347;23;20138;-85
2024/01/30 13:54:17;;;;;;;4.00;1.20;;;18.70;62.00;;;;;;6208261;23;20195;-85
2024/01/30 13:56:45;;;;;;;2.92;1.52;;;18.70;61.70;;;;;;6262474;22;20187;-84
2024/01/30 13:59:12;;;;;;;2.55;1.50;;;18.80;62.30;;;;;;6266491;22;20132;-86
2024/01/30 14:01:41;;;;;;;3.83;1.52;;;18.80;61.50;;;;;;6239784;22;20235;-84
2024/01/30 14:04:07;;;;;;;2.83;1.30;;;18.80;61.60;;;;;;6241161;22;20159;-85
2024/01/30 14:06:36;;;;;;;5.15;1.38;;;18.80;62.00;;;;;;6239669;22;20149;-85
2024/01/30 14:09:28;;;;;;;3.92;1.50;;;18.70;61.80;;;;;;6262209;22;20137;-85
2024/01/30 14:11:56;;;;;;;3.42;1.77;;;18.80;61.80;;;;;;6289657;22;20141;-83
2024/01/30 14:14:50;;;;;;;;;;;;;;;;;;;;;
2024/01/30 14:17:35;;;;;;;2.42;1.13;;;18.80;62.30;;;;;;6182447;23;20204;-83
2024/01/30 14:20:06;;;;;;;2.63;1.20;;;18.70;62.10;;;;;;6210333;23;20159;-86
2024/01/30 14:22:33;;;;;;;1.98;1.30;;;18.70;62.10;;;;;;6208878;23;20596;-85
2024/01/30 14:25:00;;;;;;;3.28;1.33;;;18.80;61.80;;;;;;6207865;23;20153;-82
2024/01/30 14:27:30;;;;;;;2.92;1.40;;;18.70;61.90;;;;;;6227600;23;20134;-84
2024/01/30 17:18:18;;;;;;;6.38;1.98;;;19.10;65.40;;;;;;6287711;22;20211;-88
2024/01/30 17:59:30;;;;;;;;;;;;;;;;;;;;;
2024/01/30 18:02:09;;;;;;;;;;;;;;;;;;;;;
2024/01/30 18:05:04;;;;;;;4.22;1.77;;;19.20;66.90;;;;;;5924318;24;20175;-87
2024/01/30 18:07:32;;;;;;;3.92;1.35;;;19.20;66.70;;;;;;5896605;24;20153;-82